Time;durP1;ratioP1;P1;durP2;ratioP2;P2;SDS_P1;SDS_P2;PMS_P1;PMS_P2;Temp;Humidity;BMP_temperature;BMP_pressure;BME280_temperature;BME280_humidity;BME280_pressure;Samples;Min_cycle;Max_cycle;Signal;HPM_P1;HPM_P2
2024/01/29 00:02:01;;;;;;;13.33;7.37;;;6.30;35.60;;;;;;5015959;28;38336;-88
2024/01/29 00:04:27;;;;;;;11.67;7.87;;;6.40;31.30;;;;;;5026109;28;49310;-88
2024/01/29 00:06:54;;;;;;;12.00;7.70;;;6.40;33.90;;;;;;5007837;28;36181;-89
2024/01/29 00:09:32;;;;;;;11.97;8.07;;;6.30;34.40;;;;;;5009883;28;41367;-90
2024/01/29 00:11:58;;;;;;;12.53;8.07;;;6.20;36.40;;;;;;5043726;28;38550;-90
2024/01/29 00:14:24;;;;;;;11.87;7.80;;;6.10;42.80;;;;;;5027315;28;37716;-88
2024/01/29 00:16:50;;;;;;;13.23;8.33;;;6.00;52.20;;;;;;5018125;28;36454;-89
2024/01/29 00:19:17;;;;;;;13.07;7.97;;;6.00;57.90;;;;;;5010284;28;38388;-92
2024/01/29 00:21:43;;;;;;;12.20;7.33;;;5.90;58.10;;;;;;5020711;28;37245;-92
2024/01/29 00:24:09;;;;;;;14.17;8.43;;;5.90;61.30;;;;;;5001821;28;37817;-92
2024/01/29 00:26:38;;;;;;;11.30;8.20;;;5.80;62.70;;;;;;5024729;28;36371;-91
2024/01/29 00:29:05;;;;;;;12.73;8.13;;;5.80;64.40;;;;;;5025250;28;38475;-93
2024/01/29 00:31:31;;;;;;;13.73;8.57;;;5.60;62.80;;;;;;5026012;28;38573;-91
2024/01/29 00:33:58;;;;;;;12.23;8.43;;;5.50;63.70;;;;;;5028393;28;37488;-91
2024/01/29 00:36:28;;;;;;;12.27;8.00;;;5.40;71.40;;;;;;5024196;28;37533;-88
2024/01/29 00:38:54;;;;;;;15.07;8.53;;;5.20;83.20;;;;;;5022809;28;41777;-89
2024/01/29 00:41:20;;;;;;;13.57;7.90;;;5.10;88.70;;;;;;5004109;28;37551;-89
2024/01/29 00:43:46;;;;;;;11.50;8.23;;;5.00;91.50;;;;;;5019875;28;37697;-91
2024/01/29 00:46:13;;;;;;;16.33;8.83;;;4.80;93.30;;;;;;5020674;28;36315;-91
2024/01/29 00:48:40;;;;;;;13.40;9.27;;;4.60;97.80;;;;;;5020119;28;37956;-90
2024/01/29 00:51:06;;;;;;;12.60;8.97;;;4.50;99.90;;;;;;5018441;28;38198;-90
2024/01/29 00:53:35;;;;;;;11.43;8.53;;;4.40;99.90;;;;;;5023940;28;37136;-88
2024/01/29 00:56:04;;;;;;;13.90;9.17;;;4.20;99.90;;;;;;5025407;28;37501;-86
2024/01/29 00:58:30;;;;;;;13.53;8.87;;;4.10;99.90;;;;;;5021454;28;38180;-89
2024/01/29 01:00:57;;;;;;;19.70;9.67;;;4.10;99.90;;;;;;5023518;28;38290;-87
2024/01/29 01:03:23;;;;;;;12.03;8.70;;;3.90;99.90;;;;;;5012523;28;36368;-85
2024/01/29 01:05:49;;;;;;;13.50;8.53;;;3.80;99.90;;;;;;5013056;28;37244;-85
2024/01/29 01:08:15;;;;;;;12.50;9.53;;;3.70;99.90;;;;;;5029648;28;37633;-85
2024/01/29 01:10:41;;;;;;;11.00;8.67;;;3.60;99.90;;;;;;5003270;28;37519;-84
2024/01/29 01:13:07;;;;;;;14.03;9.50;;;3.60;99.90;;;;;;5019050;28;37593;-82
2024/01/29 01:15:33;;;;;;;14.37;9.27;;;3.50;99.90;;;;;;5032963;28;36229;-84
2024/01/29 01:18:00;;;;;;;15.50;9.70;;;3.40;99.90;;;;;;4996877;28;38636;-85
2024/01/29 01:20:26;;;;;;;14.73;9.83;;;3.30;99.90;;;;;;4997328;28;37393;-83
2024/01/29 01:22:57;;;;;;;16.50;10.53;;;3.30;99.90;;;;;;5024518;28;36821;-83
2024/01/29 01:25:24;;;;;;;12.77;10.37;;;3.20;99.90;;;;;;5007946;28;36677;-84
2024/01/29 01:27:53;;;;;;;13.93;10.43;;;3.20;99.90;;;;;;5026937;28;40340;-83
2024/01/29 01:30:28;;;;;;;15.07;11.30;;;3.10;99.90;;;;;;5027759;28;38323;-83
2024/01/29 01:33:13;;;;;;;18.10;10.87;;;3.10;99.90;;;;;;5028624;28;36705;-83
2024/01/29 01:35:57;;;;;;;17.70;12.03;;;3.40;99.90;;;;;;5015833;28;49753;-82
2024/01/29 01:38:46;;;;;;;15.87;10.83;;;3.70;99.90;;;;;;5037673;28;39223;-83
2024/01/29 01:41:14;;;;;;;16.13;10.93;;;4.00;99.90;;;;;;5029577;28;38613;-83
2024/01/29 01:43:41;;;;;;;15.57;11.47;;;4.20;99.90;;;;;;5028048;28;38472;-84
2024/01/29 01:46:22;;;;;;;14.23;10.40;;;4.50;99.90;;;;;;5033693;28;37474;-82
2024/01/29 01:48:53;;;;;;;15.80;10.77;;;4.80;99.90;;;;;;5022435;28;39478;-83
2024/01/29 01:51:20;;;;;;;13.10;10.23;;;4.90;99.90;;;;;;5001751;28;37199;-85
2024/01/29 01:53:52;;;;;;;17.50;10.70;;;5.00;99.90;;;;;;5008271;28;37830;-86
2024/01/29 01:56:19;;;;;;;12.60;9.63;;;5.00;99.90;;;;;;5015184;28;37617;-85
2024/01/29 01:58:45;;;;;;;14.90;10.13;;;5.00;99.90;;;;;;5017785;28;38582;-85
2024/01/29 02:03:52;;;;;;;14.73;9.40;;;5.00;99.90;;;;;;5763253;22;20060;-86
2024/01/29 02:06:22;;;;;;;15.57;9.77;;;5.10;99.90;;;;;;5036812;28;37480;-86
2024/01/29 02:08:51;;;;;;;17.13;10.17;;;5.10;99.90;;;;;;5043564;28;39410;-88
2024/01/29 02:11:23;;;;;;;14.67;9.90;;;5.20;99.90;;;;;;5033256;28;39782;-85
2024/01/29 02:13:58;;;;;;;19.20;10.27;;;5.10;99.90;;;;;;5045460;28;37604;-86
2024/01/29 02:16:42;;;;;;;14.70;9.90;;;5.00;99.90;;;;;;5025417;28;36634;-88
2024/01/29 02:19:43;;;;;;;14.37;9.77;;;5.00;99.90;;;;;;5023651;28;38210;-87
2024/01/29 02:22:28;;;;;;;14.10;10.03;;;5.00;99.90;;;;;;4983760;28;39387;-83
2024/01/29 02:25:05;;;;;;;14.50;9.73;;;4.80;99.90;;;;;;5030381;28;37018;-93
2024/01/29 02:27:48;;;;;;;13.43;9.23;;;4.70;99.90;;;;;;5015315;28;48419;-93
2024/01/29 02:30:18;;;;;;;14.60;9.32;;;4.60;99.90;;;;;;5035009;28;42001;-91
2024/01/29 02:32:49;;;;;;;17.13;9.40;;;4.50;99.90;;;;;;5033404;28;39663;-90
2024/01/29 02:35:26;;;;;;;14.40;9.67;;;4.50;99.90;;;;;;5047773;28;38798;-88
2024/01/29 02:37:59;;;;;;;13.47;9.30;;;4.50;99.90;;;;;;5047633;28;38432;-88
2024/01/29 02:40:31;;;;;;;15.53;9.87;;;4.50;99.90;;;;;;5071903;28;38658;-86
2024/01/29 02:43:17;;;;;;;15.10;9.75;;;4.50;99.90;;;;;;5027806;28;38524;-84
2024/01/29 02:45:48;;;;;;;13.57;9.73;;;4.60;99.90;;;;;;5043697;28;47920;-91
2024/01/29 02:48:19;;;;;;;16.48;10.63;;;4.50;99.90;;;;;;5045001;28;37739;-87
2024/01/29 02:50:57;;;;;;;14.27;10.37;;;4.60;99.90;;;;;;5047949;28;40165;-86
2024/01/29 02:53:34;;;;;;;13.80;10.80;;;4.70;99.90;;;;;;5027845;28;39580;-85
2024/01/29 02:56:06;;;;;;;14.63;9.63;;;4.70;99.90;;;;;;5047741;28;39231;-88
2024/01/29 02:58:40;;;;;;;12.43;9.77;;;4.60;99.90;;;;;;5064265;28;49272;-88
2024/01/29 03:01:09;;;;;;;15.63;10.37;;;4.50;99.90;;;;;;5022154;28;40861;-90
2024/01/29 03:04:01;;;;;;;16.80;10.73;;;4.50;99.90;;;;;;5046233;28;38705;-85
2024/01/29 03:06:50;;;;;;;15.47;10.10;;;4.40;99.90;;;;;;5021906;28;49359;-84
2024/01/29 03:09:19;;;;;;;15.37;10.43;;;4.50;99.90;;;;;;5031289;28;36522;-82
2024/01/29 03:12:01;;;;;;;15.13;10.17;;;4.60;99.90;;;;;;5038122;28;37909;-89
2024/01/29 03:14:35;;;;;;;14.30;9.63;;;4.70;99.90;;;;;;5029633;28;39065;-86
2024/01/29 03:17:06;;;;;;;13.70;10.40;;;4.60;99.90;;;;;;5031030;28;38359;-87
2024/01/29 03:19:42;;;;;;;18.27;11.33;;;4.50;99.90;;;;;;5044583;28;47257;-87
2024/01/29 03:22:10;;;;;;;19.03;9.57;;;4.40;99.90;;;;;;5031228;28;38531;-86
2024/01/29 03:24:42;;;;;;;17.50;10.50;;;4.50;99.90;;;;;;5040768;28;38213;-85
2024/01/29 03:27:14;;;;;;;15.48;10.45;;;4.50;99.90;;;;;;5054197;28;37736;-89
2024/01/29 03:29:46;;;;;;;16.00;10.93;;;4.50;99.90;;;;;;5063691;28;36954;-90
2024/01/29 03:32:25;;;;;;;;;;;;;;;;;;;;;
2024/01/29 03:34:57;;;;;;;15.83;10.87;;;4.70;99.90;;;;;;5059664;28;39170;-87
2024/01/29 03:37:27;;;;;;;15.03;10.00;;;4.80;99.90;;;;;;5030290;28;41410;-85
2024/01/29 03:39:58;;;;;;;12.20;9.83;;;4.70;99.90;;;;;;5021834;28;38688;-90
2024/01/29 03:42:33;;;;;;;17.27;11.53;;;4.70;99.90;;;;;;5041914;28;39285;-88
2024/01/29 03:47:39;;;;;;;15.10;10.20;;;4.50;99.90;;;;;;5127850;22;20041;-85
2024/01/29 03:50:26;;;;;;;18.70;11.87;;;4.40;99.90;;;;;;5083793;28;37566;-86
2024/01/29 03:52:57;;;;;;;15.60;9.90;;;4.30;99.90;;;;;;5087487;28;38818;-90
2024/01/29 03:55:26;;;;;;;14.00;10.77;;;4.30;99.90;;;;;;5083689;28;39710;-85
2024/01/29 03:58:00;;;;;;;15.10;10.20;;;4.20;99.90;;;;;;5084267;28;37782;-91
2024/01/29 04:00:36;;;;;;;17.23;10.83;;;4.10;99.90;;;;;;5089498;28;49431;-82
2024/01/29 04:03:10;;;;;;;;;;;4.00;99.90;;;;;;5071726;28;37762;-89
2024/01/29 04:05:38;;;;;;;;;;;4.00;99.90;;;;;;5076858;28;38518;-86
2024/01/29 04:08:14;;;;;;;14.87;10.77;;;4.10;99.90;;;;;;5079269;28;36850;-86
2024/01/29 04:10:44;;;;;;;19.03;10.77;;;4.20;99.90;;;;;;5085338;28;36740;-86
2024/01/29 04:13:24;;;;;;;15.70;10.43;;;4.30;99.90;;;;;;5081523;28;39921;-91
2024/01/29 04:15:57;;;;;;;16.27;10.47;;;4.40;99.90;;;;;;5092406;28;38067;-85
2024/01/29 04:18:32;;;;;;;16.23;12.30;;;4.60;99.90;;;;;;5084411;28;38068;-90
2024/01/29 04:21:06;;;;;;;17.17;11.97;;;4.80;99.90;;;;;;5074519;28;37327;-89
2024/01/29 04:23:39;;;;;;;15.07;10.97;;;4.90;99.90;;;;;;5087245;28;49339;-84
2024/01/29 04:26:12;;;;;;;19.48;11.38;;;4.90;99.90;;;;;;5076648;28;39257;-87
2024/01/29 04:28:42;;;;;;;14.93;10.87;;;5.00;99.90;;;;;;5088405;28;38571;-88
2024/01/29 04:31:20;;;;;;;12.83;10.03;;;5.00;99.90;;;;;;5087401;28;36833;-83
2024/01/29 04:33:51;;;;;;;16.27;10.37;;;5.00;99.90;;;;;;5091305;28;39181;-88
2024/01/29 04:36:24;;;;;;;16.40;9.67;;;4.90;99.90;;;;;;5065609;28;39126;-89
2024/01/29 04:38:58;;;;;;;15.63;9.93;;;4.80;99.90;;;;;;5087203;28;38942;-84
2024/01/29 04:41:31;;;;;;;12.87;9.63;;;4.80;99.90;;;;;;5052899;28;37330;-83
2024/01/29 04:44:04;;;;;;;16.77;10.77;;;4.80;99.90;;;;;;5086652;28;39862;-83
2024/01/29 04:46:58;;;;;;;14.40;10.47;;;4.70;99.90;;;;;;5084534;28;48520;-84
2024/01/29 04:49:31;;;;;;;17.00;10.80;;;4.70;99.90;;;;;;5075896;28;37330;-87
2024/01/29 04:52:09;;;;;;;15.30;10.37;;;4.60;99.90;;;;;;5087820;28;41142;-85
2024/01/29 04:55:06;;;;;;;16.00;10.17;;;4.60;99.90;;;;;;5080133;28;47926;-86
2024/01/29 04:57:38;;;;;;;13.63;10.53;;;4.70;99.90;;;;;;5087220;28;47987;-84
2024/01/29 05:00:17;;;;;;;15.63;9.63;;;4.60;99.90;;;;;;5076486;28;38218;-87
2024/01/29 05:03:06;;;;;;;13.10;9.90;;;4.90;99.90;;;;;;5063694;28;36983;-82
2024/01/29 05:05:36;;;;;;;14.27;9.90;;;4.90;99.90;;;;;;5065070;28;50020;-86
2024/01/29 05:08:13;;;;;;;15.03;10.30;;;5.10;99.90;;;;;;5048266;28;38709;-88
2024/01/29 05:10:50;;;;;;;13.33;9.87;;;5.10;99.90;;;;;;5086895;28;37308;-89
2024/01/29 05:13:27;;;;;;;13.23;9.57;;;5.20;99.90;;;;;;5075162;28;37870;-88
2024/01/29 05:15:57;;;;;;;15.77;10.27;;;5.10;99.90;;;;;;5079230;28;39009;-88
2024/01/29 05:18:36;;;;;;;12.53;9.63;;;5.10;99.90;;;;;;5073051;27;38103;-83
2024/01/29 05:21:15;;;;;;;12.57;9.97;;;5.20;99.90;;;;;;5078823;28;37170;-89
2024/01/29 05:23:48;;;;;;;14.87;10.83;;;5.10;99.90;;;;;;5077271;28;37961;-89
2024/01/29 05:26:19;;;;;;;12.57;9.63;;;5.00;99.90;;;;;;5073606;28;39982;-91
2024/01/29 05:28:55;;;;;;;12.30;8.90;;;4.80;99.90;;;;;;5089233;28;38774;-88
2024/01/29 05:31:38;;;;;;;14.13;9.77;;;4.70;99.90;;;;;;5089416;28;49340;-88
2024/01/29 05:34:08;;;;;;;16.50;9.83;;;4.60;99.90;;;;;;5059537;28;35614;-83
2024/01/29 05:36:38;;;;;;;15.03;10.83;;;4.50;99.90;;;;;;5085399;28;39098;-83
2024/01/29 05:39:11;;;;;;;14.03;10.30;;;4.40;99.90;;;;;;5073114;28;38884;-84
2024/01/29 05:41:38;;;;;;;;;;;4.30;99.90;;;;;;5068868;28;39118;-82
2024/01/29 05:44:12;;;;;;;17.20;10.93;;;4.20;99.90;;;;;;5074534;28;37908;-82
2024/01/29 05:46:40;;;;;;;17.13;11.37;;;4.20;99.90;;;;;;5064304;28;38906;-82
2024/01/29 05:49:07;;;;;;;15.93;11.00;;;4.10;99.90;;;;;;5081747;28;38607;-81
2024/01/29 05:51:38;;;;;;;14.17;10.70;;;4.00;99.90;;;;;;5081968;28;37124;-86
2024/01/29 05:54:13;;;;;;;14.83;10.97;;;4.00;99.90;;;;;;5090693;28;38121;-84
2024/01/29 05:56:51;;;;;;;16.07;11.70;;;4.00;99.90;;;;;;5061922;28;38470;-85
2024/01/29 05:59:23;;;;;;;13.60;10.30;;;4.00;99.90;;;;;;5055942;28;38488;-88
2024/01/29 06:02:43;;;;;;;;;;;;;;;;;;;;;
2024/01/29 06:05:24;;;;;;;17.67;11.40;;;4.00;99.90;;;;;;5031921;28;49091;-88
2024/01/29 06:07:58;;;;;;;17.03;11.63;;;4.20;99.90;;;;;;5070504;28;38458;-90
2024/01/29 06:10:36;;;;;;;15.03;11.77;;;4.20;99.90;;;;;;5071433;28;50016;-88
2024/01/29 06:13:11;;;;;;;16.93;11.70;;;4.20;99.90;;;;;;5067223;28;39371;-85
2024/01/29 06:15:45;;;;;;;17.10;11.60;;;4.40;99.90;;;;;;5076414;28;37669;-83
2024/01/29 06:18:15;;;;;;;17.10;11.80;;;4.50;99.90;;;;;;5079100;28;39919;-89
2024/01/29 06:20:44;;;;;;;16.53;11.30;;;4.40;99.90;;;;;;5091839;28;39027;-86
2024/01/29 06:23:17;;;;;;;19.57;12.03;;;4.40;99.90;;;;;;5077063;28;37495;-85
2024/01/29 06:25:50;;;;;;;16.25;11.85;;;4.30;99.90;;;;;;5084985;28;37162;-86
2024/01/29 06:28:17;;;;;;;15.90;11.67;;;4.30;99.90;;;;;;5087504;28;38016;-88
2024/01/29 06:30:47;;;;;;;17.30;12.10;;;4.20;99.90;;;;;;5087269;28;39511;-87
2024/01/29 06:33:17;;;;;;;13.57;11.10;;;4.30;99.90;;;;;;5083102;28;36906;-87
2024/01/29 06:35:59;;;;;;;15.90;11.73;;;4.40;99.90;;;;;;5075736;28;37910;-86
2024/01/29 06:38:34;;;;;;;19.53;11.80;;;4.40;99.90;;;;;;5042082;28;37765;-82
2024/01/29 06:41:07;;;;;;;17.90;12.10;;;4.40;99.90;;;;;;5078969;28;37621;-83
2024/01/29 06:43:56;;;;;;;15.50;11.93;;;4.40;99.90;;;;;;5035832;28;48185;-85
2024/01/29 06:46:26;;;;;;;17.47;12.13;;;4.50;99.90;;;;;;5009947;28;37921;-84
2024/01/29 06:48:55;;;;;;;15.80;11.93;;;4.50;99.90;;;;;;5029365;28;37772;-81
2024/01/29 06:51:29;;;;;;;15.07;11.53;;;4.50;99.90;;;;;;5042676;28;37618;-84
2024/01/29 06:53:58;;;;;;;17.93;11.93;;;4.60;99.90;;;;;;5040437;28;37825;-85
2024/01/29 06:56:33;;;;;;;14.37;11.30;;;4.50;99.90;;;;;;5046922;28;48548;-90
2024/01/29 06:59:01;;;;;;;16.80;12.60;;;4.40;99.90;;;;;;5038176;28;36882;-82
2024/01/29 07:01:34;;;;;;;15.40;12.20;;;4.30;99.90;;;;;;4968409;28;37777;-87
2024/01/29 07:04:04;;;;;;;17.05;12.20;;;4.30;99.90;;;;;;4984978;28;38563;-87
2024/01/29 07:06:34;;;;;;;16.57;11.87;;;4.30;99.90;;;;;;4978387;28;48842;-85
2024/01/29 07:09:06;;;;;;;15.53;12.20;;;4.40;99.90;;;;;;5004177;28;37471;-85
2024/01/29 07:11:40;;;;;;;17.05;11.80;;;4.40;99.90;;;;;;4966846;28;47912;-86
2024/01/29 07:14:13;;;;;;;15.47;11.97;;;4.40;99.90;;;;;;4973170;28;39320;-89
2024/01/29 07:16:46;;;;;;;21.60;13.52;;;4.40;99.90;;;;;;5010207;28;37947;-90
2024/01/29 07:19:23;;;;;;;;;;;4.40;99.90;;;;;;4988102;28;38430;-84
2024/01/29 07:22:18;;;;;;;;;;;;;;;;;;;;;
2024/01/29 07:24:55;;;;;;;19.17;12.77;;;4.40;99.90;;;;;;4979677;28;49017;-87
2024/01/29 07:27:59;;;;;;;18.10;13.17;;;4.50;99.90;;;;;;4988663;28;38392;-87
2024/01/29 07:30:29;;;;;;;19.83;13.57;;;4.60;99.90;;;;;;4977272;28;38925;-86
2024/01/29 07:33:02;;;;;;;18.40;13.33;;;4.70;99.90;;;;;;4995130;28;36990;-88
2024/01/29 07:35:33;;;;;;;18.87;13.13;;;4.70;99.90;;;;;;4999508;28;49861;-89
2024/01/29 07:38:00;;;;;;;18.17;13.37;;;4.80;99.90;;;;;;4985082;28;36999;-84
2024/01/29 07:40:32;;;;;;;17.80;12.83;;;4.80;99.90;;;;;;4992349;28;47055;-84
2024/01/29 07:43:05;;;;;;;16.60;12.50;;;4.70;99.90;;;;;;5022080;28;38273;-85
2024/01/29 07:45:51;;;;;;;16.77;12.15;;;4.70;99.90;;;;;;5045982;28;48766;-87
2024/01/29 07:48:31;;;;;;;19.17;11.73;;;4.70;99.90;;;;;;4988228;28;37632;-81
2024/01/29 07:51:18;;;;;;;18.90;13.00;;;4.80;99.90;;;;;;5027164;28;39915;-86
2024/01/29 07:53:53;;;;;;;16.93;12.40;;;4.80;99.90;;;;;;4990993;28;49945;-88
2024/01/29 07:56:39;;;;;;;18.47;12.73;;;4.80;99.90;;;;;;5010144;28;36589;-84
2024/01/29 07:59:23;;;;;;;16.33;12.63;;;4.80;99.90;;;;;;5032059;28;36761;-84
2024/01/29 08:04:26;;;;;;;18.07;12.33;;;4.90;99.90;;;;;;5189565;23;20437;-78
2024/01/29 08:06:52;;;;;;;19.60;12.97;;;4.90;99.90;;;;;;5023545;28;38592;-79
2024/01/29 08:09:19;;;;;;;20.33;13.37;;;4.90;99.90;;;;;;5001900;28;37284;-80
2024/01/29 08:11:46;;;;;;;17.50;11.87;;;4.90;99.90;;;;;;4995694;28;40199;-81
2024/01/29 08:14:12;;;;;;;20.90;12.57;;;4.90;99.90;;;;;;4989573;28;39411;-83
2024/01/29 08:16:39;;;;;;;17.87;13.13;;;4.90;99.90;;;;;;4997818;28;39459;-80
2024/01/29 08:19:06;;;;;;;20.13;13.53;;;4.90;99.90;;;;;;5007566;28;38972;-80
2024/01/29 08:21:35;;;;;;;16.70;12.00;;;4.90;99.90;;;;;;5015756;28;38158;-80
2024/01/29 08:24:04;;;;;;;28.53;15.30;;;4.90;99.90;;;;;;4999252;28;38501;-82
2024/01/29 08:26:32;;;;;;;16.40;11.70;;;4.90;99.90;;;;;;5004095;28;37531;-85
2024/01/29 08:29:00;;;;;;;18.70;13.77;;;5.00;99.90;;;;;;5005975;28;37081;-82
2024/01/29 08:31:32;;;;;;;17.80;13.17;;;5.00;99.90;;;;;;4994520;28;38239;-84
2024/01/29 08:33:58;;;;;;;20.15;13.30;;;5.10;99.90;;;;;;5019924;28;38200;-82
2024/01/29 08:36:28;;;;;;;17.23;13.10;;;5.20;99.90;;;;;;5011343;28;37376;-81
2024/01/29 08:38:56;;;;;;;17.23;13.03;;;5.30;99.90;;;;;;4997302;28;36720;-84
2024/01/29 08:41:23;;;;;;;16.87;12.57;;;5.40;99.90;;;;;;4995207;28;39825;-82
2024/01/29 08:43:53;;;;;;;20.87;12.50;;;5.40;99.90;;;;;;4997238;28;39146;-84
2024/01/29 08:46:22;;;;;;;16.33;12.50;;;5.50;99.90;;;;;;5014398;28;39402;-88
2024/01/29 08:48:55;;;;;;;19.63;12.43;;;5.50;99.90;;;;;;5033188;28;38803;-83
2024/01/29 08:51:25;;;;;;;14.03;11.60;;;5.60;99.90;;;;;;5000791;28;38652;-83
2024/01/29 08:53:56;;;;;;;22.70;13.27;;;5.60;99.90;;;;;;5015342;28;38842;-85
2024/01/29 08:56:25;;;;;;;18.73;12.30;;;5.60;99.90;;;;;;5028500;28;38279;-88
2024/01/29 08:59:03;;;;;;;20.17;13.25;;;5.70;99.90;;;;;;5021692;28;38062;-83
2024/01/29 09:01:57;;;;;;;18.43;12.87;;;5.70;99.90;;;;;;5137484;23;49499;-85
2024/01/29 09:04:39;;;;;;;20.33;12.53;;;5.70;99.90;;;;;;5048547;28;39607;-85
2024/01/29 09:07:22;;;;;;;;;;;;;;;;;;;;;
2024/01/29 09:10:06;;;;;;;18.42;13.13;;;5.80;99.90;;;;;;5031981;28;38276;-79
2024/01/29 09:12:54;;;;;;;15.67;11.87;;;5.80;99.90;;;;;;5014807;28;49844;-80
2024/01/29 09:15:30;;;;;;;17.17;12.33;;;5.90;99.90;;;;;;5037741;28;39928;-81
2024/01/29 09:18:06;;;;;;;17.77;12.83;;;6.00;99.90;;;;;;5037823;28;39146;-80
2024/01/29 09:20:39;;;;;;;18.10;12.07;;;6.00;99.90;;;;;;5036993;28;49606;-81
2024/01/29 09:23:29;;;;;;;18.90;13.57;;;6.00;99.90;;;;;;5035126;28;39830;-80
2024/01/29 09:26:03;;;;;;;18.83;13.10;;;6.10;99.90;;;;;;5033862;28;39118;-82
2024/01/29 09:28:38;;;;;;;20.27;13.87;;;6.10;99.90;;;;;;4995384;28;48008;-81
2024/01/29 09:31:14;;;;;;;20.47;13.77;;;6.20;99.90;;;;;;5045488;28;38636;-80
2024/01/29 09:33:44;;;;;;;20.67;13.40;;;6.20;99.90;;;;;;5042701;28;39010;-80
2024/01/29 09:36:18;;;;;;;25.30;14.00;;;6.30;99.90;;;;;;5045967;28;39815;-81
2024/01/29 09:38:56;;;;;;;19.93;13.97;;;6.30;99.90;;;;;;5026873;28;38304;-80
2024/01/29 09:41:26;;;;;;;19.90;12.90;;;6.30;99.90;;;;;;5035579;28;38793;-82
2024/01/29 09:44:16;;;;;;;18.73;13.77;;;6.40;99.90;;;;;;5048859;28;40102;-83
2024/01/29 09:46:49;;;;;;;21.87;14.50;;;6.40;99.90;;;;;;5030639;28;50170;-81
2024/01/29 09:49:23;;;;;;;18.83;13.43;;;6.50;99.90;;;;;;5029928;28;36535;-80
2024/01/29 09:51:54;;;;;;;24.00;13.30;;;6.50;99.90;;;;;;5047644;28;37657;-80
2024/01/29 09:54:23;;;;;;;18.13;13.30;;;6.60;99.90;;;;;;5029930;28;38584;-80
2024/01/29 09:56:53;;;;;;;21.40;14.10;;;6.60;99.90;;;;;;5043496;28;38063;-80
2024/01/29 09:59:30;;;;;;;20.60;14.30;;;6.70;99.90;;;;;;5051807;28;38394;-80
2024/01/29 10:02:07;;;;;;;21.20;14.80;;;6.70;99.90;;;;;;5114531;23;38360;-80
2024/01/29 10:04:54;;;;;;;21.30;13.97;;;6.80;99.90;;;;;;5210702;23;49007;-79
2024/01/29 10:18:05;;;;;;;20.13;13.90;;;7.10;99.90;;;;;;5411515;23;20055;-79
2024/01/29 10:21:10;;;;;;;20.93;13.73;;;7.20;99.90;;;;;;5033561;28;49129;-79
2024/01/29 10:24:15;;;;;;;23.57;14.70;;;7.20;99.90;;;;;;5050151;28;48834;-80
2024/01/29 10:27:08;;;;;;;20.53;13.57;;;7.30;99.90;;;;;;5060657;28;48760;-81
2024/01/29 10:30:04;;;;;;;20.80;13.23;;;7.30;99.90;;;;;;5062529;28;49992;-80
2024/01/29 10:32:47;;;;;;;21.30;13.20;;;7.40;99.90;;;;;;5292950;23;50278;-81
2024/01/29 10:36:25;;;;;;;21.63;14.13;;;7.40;99.90;;;;;;5034760;28;49412;-81
2024/01/29 10:39:10;;;;;;;19.63;13.73;;;7.50;99.90;;;;;;5009051;28;48149;-81
2024/01/29 10:42:20;;;;;;;21.37;13.73;;;7.60;99.90;;;;;;5000603;28;50397;-81
2024/01/29 10:45:04;;;;;;;18.40;12.60;;;7.70;99.90;;;;;;5020206;28;49367;-80
2024/01/29 10:48:44;;;;;;;21.50;13.50;;;7.70;99.90;;;;;;5059524;28;37319;-81
2024/01/29 10:51:27;;;;;;;24.23;14.60;;;7.90;99.90;;;;;;5030294;28;38088;-81
2024/01/29 10:54:04;;;;;;;23.30;14.07;;;8.00;99.90;;;;;;4991858;28;39012;-81
2024/01/29 10:57:25;;;;;;;;;;;8.00;99.90;;;;;;5000988;28;49196;-80
2024/01/29 11:00:13;;;;;;;20.73;13.70;;;8.00;99.90;;;;;;5033595;28;50307;-81
2024/01/29 11:02:44;;;;;;;17.97;13.23;;;8.20;99.90;;;;;;5008300;28;50325;-80
2024/01/29 11:06:32;;;;;;;20.03;13.43;;;8.30;99.90;;;;;;5021282;28;50467;-82
2024/01/29 11:09:59;;;;;;;19.93;13.53;;;8.40;99.90;;;;;;4961581;28;48874;-80
2024/01/29 11:12:59;;;;;;;19.00;12.77;;;8.50;99.90;;;;;;5163747;23;39291;-81
2024/01/29 11:16:24;;;;;;;17.73;12.50;;;8.60;99.90;;;;;;5020689;28;40145;-81
2024/01/29 11:37:55;;;;;;;;;;;;;;;;;;;;;
2024/01/29 18:53:12;;;;;;;42.65;27.42;;;8.00;99.90;;;;;;5747259;23;20070;-81
2024/01/29 18:59:26;;;;;;;41.67;27.37;;;7.90;99.90;;;;;;4937533;29;49817;-82
2024/01/29 19:02:26;;;;;;;30.73;23.23;;;7.90;99.90;;;;;;4922760;29;49972;-81
2024/01/29 19:05:39;;;;;;;41.33;25.50;;;8.00;99.90;;;;;;4876934;28;50225;-80
2024/01/29 19:08:51;;;;;;;33.90;24.40;;;8.20;99.90;;;;;;4895743;29;49739;-81
2024/01/29 19:11:46;;;;;;;37.95;26.90;;;8.40;99.90;;;;;;4911414;29;48566;-81
2024/01/29 19:20:12;;;;;;;36.03;24.37;;;8.80;99.90;;;;;;5378937;23;20970;-83
2024/01/29 19:23:26;;;;;;;38.25;27.13;;;8.70;99.90;;;;;;4927303;28;38824;-82
2024/01/29 19:26:20;;;;;;;44.47;27.93;;;8.70;99.90;;;;;;4937068;28;50196;-82
2024/01/29 19:29:20;;;;;;;39.30;24.80;;;8.70;99.90;;;;;;4926734;28;50039;-81
2024/01/29 19:32:36;;;;;;;;;;;;;;;;;;;;;
2024/01/29 19:40:46;;;;;;;44.43;26.90;;;8.80;99.90;;;;;;5000882;23;20041;-82
2024/01/29 19:43:43;;;;;;;36.17;24.90;;;8.80;99.90;;;;;;4948226;28;40103;-81
2024/01/29 19:51:39;;;;;;;36.73;25.73;;;9.00;99.90;;;;;;4976910;23;20050;-81
2024/01/29 19:54:09;;;;;;;33.40;24.60;;;9.00;99.90;;;;;;4945966;28;40042;-81
2024/01/29 19:57:00;;;;;;;42.13;24.97;;;9.00;99.90;;;;;;4960659;28;38861;-80
2024/01/29 19:59:50;;;;;;;43.87;25.83;;;9.00;99.90;;;;;;4947751;28;38212;-82
2024/01/29 20:02:49;;;;;;;38.17;25.17;;;9.00;99.90;;;;;;4946389;28;38249;-81
2024/01/29 20:05:33;;;;;;;31.67;22.57;;;9.00;99.90;;;;;;4947640;28;39329;-81
2024/01/29 20:08:12;;;;;;;32.00;23.10;;;9.00;99.90;;;;;;4948230;28;37703;-81
2024/01/29 20:11:44;;;;;;;31.93;21.53;;;9.00;99.90;;;;;;4978530;28;49987;-81
2024/01/29 20:14:39;;;;;;;34.47;22.53;;;9.00;99.90;;;;;;4951144;28;48824;-82
2024/01/29 20:17:45;;;;;;;34.67;23.27;;;9.10;99.90;;;;;;4949455;28;40027;-82
2024/01/29 20:20:16;;;;;;;34.80;22.60;;;9.10;99.90;;;;;;4948526;28;39760;-80
2024/01/29 20:22:54;;;;;;;34.73;22.17;;;9.20;99.90;;;;;;4961689;28;35511;-80
2024/01/29 20:26:09;;;;;;;37.70;23.17;;;9.20;99.90;;;;;;4950736;28;38065;-81
2024/01/29 20:35:33;;;;;;;31.70;21.00;;;9.40;99.90;;;;;;4947889;28;50676;-82
2024/01/29 20:38:20;;;;;;;;;;;9.50;99.90;;;;;;4943872;28;38076;-82
2024/01/29 20:41:12;;;;;;;27.60;19.48;;;9.50;99.90;;;;;;4924487;28;49007;-81
2024/01/29 20:44:42;;;;;;;31.83;20.03;;;9.50;99.90;;;;;;4926032;28;50342;-78
2024/01/29 20:50:45;;;;;;;30.83;20.33;;;9.50;99.90;;;;;;5070048;23;20023;-80
2024/01/29 20:53:21;;;;;;;24.67;18.83;;;9.50;99.90;;;;;;4956280;28;48099;-81
2024/01/29 20:56:32;;;;;;;25.40;18.70;;;9.40;99.90;;;;;;4983563;28;39009;-82
2024/01/29 20:59:10;;;;;;;34.57;19.90;;;9.30;99.90;;;;;;4971160;28;50331;-81
2024/01/29 21:01:46;;;;;;;27.60;18.93;;;9.30;99.90;;;;;;4900530;28;47785;-80
2024/01/29 21:04:26;;;;;;;26.80;19.37;;;9.30;99.90;;;;;;4933746;28;37976;-82
2024/01/29 21:07:02;;;;;;;26.27;17.77;;;9.30;99.90;;;;;;4957051;28;38887;-81
2024/01/29 21:27:51;;;;;;;25.67;16.80;;;9.20;99.90;;;;;;5074171;23;20047;-82
2024/01/29 21:30:33;;;;;;;25.03;18.30;;;9.20;99.90;;;;;;4971495;28;37354;-82
2024/01/29 21:34:09;;;;;;;;;;;;;;;;;;;;;
2024/01/29 21:37:50;;;;;;;;;;;;;;;;;;;;;
2024/01/29 21:43:52;;;;;;;28.17;17.27;;;9.20;99.90;;;;;;4908288;28;39246;-83
2024/01/29 21:46:55;;;;;;;25.17;16.97;;;9.10;99.90;;;;;;4930023;28;36857;-83
2024/01/29 22:09:04;;;;;;;23.97;16.33;;;9.10;99.90;;;;;;5365871;23;20086;-82
2024/01/29 22:11:50;;;;;;;24.87;16.80;;;9.00;99.90;;;;;;4943782;23;48832;-82
2024/01/29 22:28:01;;;;;;;22.10;16.27;;;9.20;99.90;;;;;;4256618;26;20051;-84
2024/01/29 22:31:02;;;;;;;23.47;14.90;;;9.20;99.90;;;;;;4952430;28;39022;-83
2024/01/29 22:33:42;;;;;;;22.37;14.43;;;9.20;99.90;;;;;;4947048;28;48634;-82
2024/01/29 22:36:41;;;;;;;21.40;16.63;;;9.20;99.90;;;;;;4952294;28;38674;-81
2024/01/29 22:39:20;;;;;;;24.20;15.27;;;9.20;99.90;;;;;;4956888;28;38391;-82
2024/01/29 22:42:09;;;;;;;20.03;14.40;;;9.10;99.90;;;;;;5022917;23;38234;-81
2024/01/29 22:44:58;;;;;;;23.33;14.93;;;9.10;99.90;;;;;;4901216;28;49942;-82
2024/01/29 22:48:18;;;;;;;21.90;14.87;;;9.00;99.90;;;;;;4934464;28;38820;-82
2024/01/29 22:50:56;;;;;;;22.50;15.67;;;9.00;99.90;;;;;;4917483;28;47709;-82
2024/01/29 23:22:04;;;;;;;20.93;14.67;;;9.10;99.90;;;;;;5077714;23;20062;-84
2024/01/29 23:25:13;;;;;;;19.60;13.67;;;9.10;99.90;;;;;;4937722;28;49304;-80
2024/01/29 23:28:36;;;;;;;20.23;13.50;;;9.10;99.90;;;;;;4938200;28;49472;-82
2024/01/29 23:31:22;;;;;;;18.77;12.87;;;9.20;99.90;;;;;;4935005;28;48861;-83
2024/01/29 23:34:01;;;;;;;15.93;12.88;;;9.20;99.90;;;;;;5206400;23;39129;-83
2024/01/29 23:47:08;;;;;;;17.70;12.87;;;9.40;99.90;;;;;;5667754;23;20048;-82